Terminal Aerodrome Forecast
Issued by NWS

Home | Current Version | Previous Version | Text Only | Print | Product List | Glossary On
Versions: 1 2 3 4 5 6 7 8 9 10 11 12 13
797
FTUS46 KPDT 100535
TAFYKM
TAF
KYKM 100535Z 1006/1106 28007KT P6SM SCT250
      TEMPO 1010/1014 1/4SM FZFG VV001
     FM101400 25007KT 2SM BR OVC005
     FM101900 25008KT P6SM SCT100 BKN250=

USA.gov is the U.S. government's official web portal to all federal, state and local government web resources and services.